Time;durP1;ratioP1;P1;durP2;ratioP2;P2;SDS_P1;SDS_P2;PMS_P1;PMS_P2;Temp;Humidity;BMP_temperature;BMP_pressure;BME280_temperature;BME280_humidity;BME280_pressure;Samples;Min_cycle;Max_cycle;Signal;HPM_P1;HPM_P2
2021/03/05 00:02:25;;;;;;;10.75;6.00;;;4.40;99.90;;;;;;4988731;28;20273;-79
2021/03/05 00:04:53;;;;;;;9.38;5.10;;;4.40;99.90;;;;;;4993618;28;20659;-80
2021/03/05 00:07:23;;;;;;;17.80;5.60;;;4.40;99.90;;;;;;4972315;28;20190;-78
2021/03/05 00:09:54;;;;;;;9.93;5.00;;;4.10;99.90;;;;;;4975295;28;20492;-78
2021/03/05 00:12:24;;;;;;;8.52;4.93;;;4.30;99.90;;;;;;4985795;28;20278;-79
2021/03/05 00:14:53;;;;;;;12.45;5.15;;;4.40;99.90;;;;;;4995143;28;20299;-79
2021/03/05 00:17:21;;;;;;;8.52;5.53;;;4.30;99.90;;;;;;4988207;28;20261;-78
2021/03/05 00:19:52;;;;;;;17.95;8.93;;;4.30;99.90;;;;;;4990084;28;20186;-79
2021/03/05 00:22:23;;;;;;;14.13;6.55;;;4.30;99.90;;;;;;4993057;28;20273;-79
2021/03/05 00:24:51;;;;;;;16.33;5.60;;;4.40;99.90;;;;;;4993509;28;20210;-79
2021/03/05 00:27:24;;;;;;;9.85;5.60;;;4.40;99.90;;;;;;4988331;28;20193;-79
2021/03/05 00:29:58;;;;;;;13.55;4.95;;;4.30;99.90;;;;;;4988109;28;20217;-79
2021/03/05 00:32:24;;;;;;;14.02;5.90;;;4.30;99.90;;;;;;4974462;28;20206;-79
2021/03/05 00:34:51;;;;;;;14.88;6.03;;;4.30;99.90;;;;;;4985702;28;20197;-79
2021/03/05 00:37:19;;;;;;;12.13;5.28;;;4.40;99.90;;;;;;4961595;28;20194;-79
2021/03/05 00:39:50;;;;;;;16.17;5.18;;;4.30;99.90;;;;;;4979907;28;20226;-79
2021/03/05 00:42:20;;;;;;;20.20;7.07;;;4.00;99.90;;;;;;4974784;28;20191;-79
2021/03/05 00:44:56;;;;;;;9.13;4.40;;;4.30;99.90;;;;;;4985437;28;20191;-79
2021/03/05 00:47:26;;;;;;;12.10;5.63;;;4.00;99.90;;;;;;4987182;28;20202;-79
2021/03/05 00:49:57;;;;;;;18.48;5.45;;;4.20;99.90;;;;;;4977408;28;20185;-78
2021/03/05 00:52:23;;;;;;;11.80;6.55;;;4.30;99.90;;;;;;4979588;28;20239;-79
2021/03/05 00:54:49;;;;;;;13.23;5.30;;;4.20;99.90;;;;;;5013282;28;20289;-79
2021/03/05 00:57:22;;;;;;;12.32;5.82;;;4.20;99.90;;;;;;4995649;28;20194;-79
2021/03/05 00:59:54;;;;;;;16.55;4.90;;;4.20;99.90;;;;;;5012896;28;20272;-79
2021/03/05 01:02:25;;;;;;;14.20;5.38;;;4.20;99.90;;;;;;4995709;28;20244;-79
2021/03/05 01:04:55;;;;;;;18.50;6.05;;;4.20;99.90;;;;;;4988154;28;20571;-79
2021/03/05 01:07:28;;;;;;;15.65;7.63;;;3.80;99.90;;;;;;5012630;28;20224;-80
2021/03/05 01:09:54;;;;;;;17.10;8.15;;;4.20;99.90;;;;;;4996306;28;20193;-78
2021/03/05 01:12:27;;;;;;;21.67;7.38;;;4.20;99.90;;;;;;4991430;28;20217;-79
2021/03/05 01:14:55;;;;;;;24.98;8.13;;;4.30;99.90;;;;;;5003142;28;20277;-79
2021/03/05 01:17:28;;;;;;;17.08;7.82;;;3.90;99.90;;;;;;4975715;28;20189;-79
2021/03/05 01:19:56;;;;;;;18.40;8.02;;;4.30;99.90;;;;;;5012383;28;20189;-79
2021/03/05 01:22:30;;;;;;;19.17;7.10;;;4.40;99.90;;;;;;4988185;28;20182;-78
2021/03/05 01:24:58;;;;;;;14.43;7.10;;;4.10;99.90;;;;;;5002520;28;20200;-78
2021/03/05 01:27:24;;;;;;;16.57;6.80;;;4.50;99.90;;;;;;4989678;28;20190;-78
2021/03/05 01:29:55;;;;;;;15.60;6.07;;;4.50;99.90;;;;;;4991700;28;20424;-79
2021/03/05 01:32:23;;;;;;;12.98;6.50;;;4.40;99.90;;;;;;4991258;28;20273;-78
2021/03/05 01:34:54;;;;;;;22.60;7.78;;;4.50;99.90;;;;;;4988121;28;20189;-79
2021/03/05 01:37:27;;;;;;;19.48;8.20;;;4.40;99.90;;;;;;5011785;28;20192;-79
2021/03/05 01:39:55;;;;;;;20.65;7.40;;;4.10;99.90;;;;;;5012157;28;20198;-79
2021/03/05 01:42:25;;;;;;;21.23;7.95;;;4.40;99.90;;;;;;4993787;28;20189;-79
2021/03/05 01:44:54;;;;;;;14.88;7.65;;;4.40;99.90;;;;;;4992993;28;20189;-79
2021/03/05 01:47:20;;;;;;;19.35;8.85;;;4.50;99.90;;;;;;4978090;28;20534;-78
2021/03/05 01:49:48;;;;;;;22.42;11.07;;;4.50;99.90;;;;;;4994610;28;20214;-79
2021/03/05 01:52:19;;;;;;;29.17;10.88;;;4.50;99.90;;;;;;4995215;28;20213;-79
2021/03/05 01:54:50;;;;;;;19.48;9.50;;;4.50;99.90;;;;;;5007102;28;20185;-79
2021/03/05 01:57:18;;;;;;;23.05;10.75;;;4.50;99.90;;;;;;4990257;28;20201;-78
2021/03/05 01:59:54;;;;;;;24.38;12.50;;;4.60;99.90;;;;;;4989837;28;20652;-78
2021/03/05 02:02:24;;;;;;;26.10;12.30;;;4.60;99.90;;;;;;4994963;28;20288;-79
2021/03/05 02:04:54;;;;;;;25.75;12.10;;;4.40;99.90;;;;;;5012196;28;20197;-79
2021/03/05 02:07:27;;;;;;;25.73;11.40;;;4.50;99.90;;;;;;4986977;28;20243;-79
2021/03/05 02:09:53;;;;;;;24.20;12.27;;;4.50;99.90;;;;;;5012819;28;20208;-79
2021/03/05 02:12:21;;;;;;;25.38;10.88;;;4.50;99.90;;;;;;5011996;28;20218;-78
2021/03/05 02:14:49;;;;;;;23.83;10.32;;;4.40;99.90;;;;;;5011489;28;20181;-79
2021/03/05 02:17:31;;;;;;;25.65;10.95;;;4.00;99.90;;;;;;4995453;28;20244;-79
2021/03/05 02:20:21;;;;;;;29.15;11.27;;;4.40;99.90;;;;;;4990770;28;20245;-79
2021/03/05 02:23:44;;;;;;;27.65;13.13;;;3.90;99.90;;;;;;4993173;28;20189;-79
2021/03/05 02:26:38;;;;;;;29.10;11.30;;;4.30;99.90;;;;;;4976678;28;20401;-79
2021/03/05 02:29:23;;;;;;;21.88;13.00;;;4.30;99.90;;;;;;4994380;28;20185;-79
2021/03/05 02:32:02;;;;;;;19.85;12.63;;;4.30;99.90;;;;;;4995083;28;20308;-78
2021/03/05 02:34:37;;;;;;;19.70;11.52;;;4.30;99.90;;;;;;5010216;28;20231;-78
2021/03/05 02:37:11;;;;;;;26.38;13.80;;;4.40;99.90;;;;;;5011620;28;20188;-79
2021/03/05 02:40:09;;;;;;;22.90;14.68;;;4.30;99.90;;;;;;4994827;28;20189;-79
2021/03/05 02:42:50;;;;;;;24.30;14.02;;;4.50;99.90;;;;;;4964577;28;20880;-78
2021/03/05 02:45:29;;;;;;;20.20;12.32;;;4.30;99.90;;;;;;5005066;28;20827;-79
2021/03/05 02:48:08;;;;;;;22.63;13.00;;;4.30;99.90;;;;;;4977054;28;20201;-79
2021/03/05 02:50:40;;;;;;;24.27;14.40;;;4.50;99.90;;;;;;4970271;28;20230;-79
2021/03/05 02:53:12;;;;;;;24.35;14.70;;;4.10;99.90;;;;;;4984465;28;20213;-78
2021/03/05 02:55:40;;;;;;;20.42;13.02;;;4.40;99.90;;;;;;5007751;28;20182;-78
2021/03/05 02:58:08;;;;;;;29.00;14.57;;;4.40;99.90;;;;;;4996237;28;20174;-78
2021/03/05 03:00:35;;;;;;;20.25;13.40;;;4.40;99.90;;;;;;4977454;28;20189;-79
2021/03/05 03:03:04;;;;;;;22.35;13.50;;;4.30;99.90;;;;;;4979111;28;20594;-79
2021/03/05 03:05:31;;;;;;;21.65;14.05;;;4.40;99.90;;;;;;5015895;28;20578;-78
2021/03/05 03:08:00;;;;;;;23.38;14.60;;;4.30;99.90;;;;;;5010052;28;20228;-79
2021/03/05 03:10:34;;;;;;;24.00;14.75;;;4.10;99.90;;;;;;5013661;28;20189;-79
2021/03/05 03:13:04;;;;;;;23.85;14.77;;;4.20;99.90;;;;;;4996610;28;20197;-78
2021/03/05 03:15:36;;;;;;;23.58;15.93;;;4.20;99.90;;;;;;4998204;28;20208;-79
2021/03/05 03:18:09;;;;;;;19.25;12.25;;;4.20;99.90;;;;;;5011118;28;20189;-80
2021/03/05 03:20:38;;;;;;;25.13;14.32;;;4.20;99.90;;;;;;5014689;28;20197;-78
2021/03/05 03:23:05;;;;;;;23.75;13.73;;;4.30;99.90;;;;;;4991234;28;20198;-79
2021/03/05 03:25:33;;;;;;;21.95;13.00;;;4.30;99.90;;;;;;4978313;28;20236;-79
2021/03/05 03:28:04;;;;;;;23.02;13.18;;;4.20;99.90;;;;;;5010427;28;20194;-79
2021/03/05 03:30:35;;;;;;;18.92;12.55;;;4.40;99.90;;;;;;4988196;28;20526;-79
2021/03/05 03:33:09;;;;;;;21.38;13.25;;;4.20;99.90;;;;;;5005381;28;20208;-78
2021/03/05 03:35:35;;;;;;;17.95;12.82;;;4.10;99.90;;;;;;5015189;28;20229;-79
2021/03/05 03:38:07;;;;;;;20.25;12.85;;;4.10;99.90;;;;;;4997821;28;20205;-78
2021/03/05 03:40:35;;;;;;;18.48;12.55;;;4.10;99.90;;;;;;4998474;28;20264;-79
2021/03/05 03:43:06;;;;;;;20.73;13.02;;;4.00;99.90;;;;;;4991563;28;20248;-79
2021/03/05 03:45:39;;;;;;;20.88;13.20;;;4.10;99.90;;;;;;4988472;28;20209;-79
2021/03/05 03:48:11;;;;;;;14.73;10.82;;;4.00;99.90;;;;;;4988159;28;20497;-80
2021/03/05 03:50:54;;;;;;;17.55;12.40;;;4.00;99.90;;;;;;4993135;28;20241;-79
2021/03/05 03:53:25;;;;;;;18.17;11.60;;;4.00;99.90;;;;;;5003699;28;20213;-78
2021/03/05 03:55:54;;;;;;;14.63;11.32;;;4.20;99.90;;;;;;5014599;28;20215;-78
2021/03/05 03:58:26;;;;;;;15.52;11.30;;;4.00;99.90;;;;;;5014587;28;20197;-79
2021/03/05 04:00:57;;;;;;;15.68;10.27;;;3.90;99.90;;;;;;4996633;28;20186;-78
2021/03/05 04:03:30;;;;;;;15.40;11.23;;;4.00;99.90;;;;;;4996601;28;20340;-79
2021/03/05 04:06:03;;;;;;;17.10;10.98;;;4.00;99.90;;;;;;5014268;28;20287;-78
2021/03/05 04:08:37;;;;;;;15.85;10.45;;;4.00;99.90;;;;;;5011657;28;20205;-79
2021/03/05 04:11:07;;;;;;;14.20;10.05;;;3.90;99.90;;;;;;4988961;28;20291;-79
2021/03/05 04:13:42;;;;;;;13.23;10.23;;;3.90;99.90;;;;;;4993235;28;20205;-79
2021/03/05 04:16:10;;;;;;;14.73;10.60;;;3.80;99.90;;;;;;5007695;28;20240;-78
2021/03/05 04:18:43;;;;;;;15.52;11.02;;;3.80;99.90;;;;;;4990403;28;20616;-78
2021/03/05 04:21:18;;;;;;;14.48;9.23;;;3.30;99.90;;;;;;4996754;28;20206;-78
2021/03/05 04:23:49;;;;;;;14.20;10.15;;;3.60;99.90;;;;;;5012798;28;20197;-79
2021/03/05 04:26:17;;;;;;;19.30;12.43;;;3.80;99.90;;;;;;5014340;28;20213;-79
2021/03/05 04:28:43;;;;;;;14.23;9.57;;;3.80;99.90;;;;;;5013144;28;20201;-78
2021/03/05 04:31:11;;;;;;;14.87;8.90;;;3.70;99.90;;;;;;5009666;28;20205;-79
2021/03/05 04:33:54;;;;;;;12.32;9.30;;;3.90;99.90;;;;;;5013683;28;20456;-78
2021/03/05 04:36:20;;;;;;;13.18;8.98;;;3.90;99.90;;;;;;5006360;28;20213;-80
2021/03/05 04:38:49;;;;;;;13.75;8.80;;;3.80;99.90;;;;;;5006426;28;20498;-79
2021/03/05 04:41:17;;;;;;;13.85;9.68;;;3.40;99.90;;;;;;5013414;28;20294;-79
2021/03/05 04:43:48;;;;;;;9.85;7.70;;;3.50;99.90;;;;;;4995560;28;20189;-78
2021/03/05 04:46:14;;;;;;;10.18;6.15;;;3.60;99.90;;;;;;5018414;28;20189;-78
2021/03/05 04:48:43;;;;;;;8.10;6.53;;;3.50;99.90;;;;;;5012878;28;20229;-79
2021/03/05 04:51:11;;;;;;;11.93;6.20;;;3.50;99.90;;;;;;4998666;28;20274;-78
2021/03/05 04:53:39;;;;;;;10.70;6.00;;;3.00;99.90;;;;;;4999764;28;20475;-79
2021/03/05 04:56:10;;;;;;;10.20;5.93;;;3.30;99.90;;;;;;5013080;28;20189;-79
2021/03/05 04:58:41;;;;;;;7.82;5.60;;;3.20;99.90;;;;;;4998603;28;20800;-78
2021/03/05 05:01:14;;;;;;;6.35;5.65;;;2.80;99.90;;;;;;5012609;28;20285;-79
2021/03/05 05:03:46;;;;;;;7.20;5.63;;;2.70;99.90;;;;;;5013100;28;20225;-79
2021/03/05 05:06:16;;;;;;;5.80;5.28;;;3.00;99.90;;;;;;5013386;28;20315;-78
2021/03/05 05:08:47;;;;;;;6.18;5.57;;;3.00;99.90;;;;;;4981651;28;20517;-78
2021/03/05 05:11:15;;;;;;;6.10;5.30;;;3.00;99.90;;;;;;5009730;28;20283;-78
2021/03/05 05:13:41;;;;;;;7.60;5.70;;;3.20;99.90;;;;;;4996492;28;20673;-78
2021/03/05 05:16:09;;;;;;;7.20;5.70;;;2.80;99.90;;;;;;4997497;28;20347;-78
2021/03/05 05:18:40;;;;;;;10.98;6.10;;;2.90;99.90;;;;;;5010784;28;20426;-79
2021/03/05 05:21:11;;;;;;;9.18;5.28;;;3.10;99.90;;;;;;5012762;28;20196;-78
2021/03/05 05:23:39;;;;;;;6.00;5.40;;;3.10;99.90;;;;;;4995657;28;20219;-79
2021/03/05 05:26:07;;;;;;;6.75;5.65;;;2.40;99.90;;;;;;5004421;28;20201;-78
2021/03/05 05:28:37;;;;;;;10.50;5.63;;;2.60;99.90;;;;;;5004594;28;20208;-78
2021/03/05 05:31:03;;;;;;;7.23;5.13;;;2.60;99.90;;;;;;5004288;28;20316;-79
2021/03/05 05:33:29;;;;;;;7.27;4.63;;;2.70;99.90;;;;;;5006268;28;20482;-79
2021/03/05 05:35:58;;;;;;;5.15;4.65;;;2.50;99.90;;;;;;4963396;28;20946;-78
2021/03/05 05:38:28;;;;;;;9.43;5.50;;;2.40;99.90;;;;;;4995608;28;20276;-78
2021/03/05 05:41:01;;;;;;;6.18;5.20;;;2.00;99.90;;;;;;4997231;28;20410;-78
2021/03/05 05:43:30;;;;;;;5.03;4.40;;;1.80;99.90;;;;;;5000297;28;20184;-78
2021/03/05 05:46:08;;;;;;;7.30;5.10;;;1.80;99.90;;;;;;5001296;28;20189;-79
2021/03/05 05:48:38;;;;;;;6.85;5.10;;;1.60;99.90;;;;;;5016043;28;20206;-79
2021/03/05 05:51:18;;;;;;;5.97;4.88;;;2.20;99.90;;;;;;5021390;28;20240;-79
2021/03/05 05:53:48;;;;;;;5.38;4.88;;;2.10;99.90;;;;;;4993457;28;20247;-79
2021/03/05 05:56:22;;;;;;;8.32;5.30;;;2.10;99.90;;;;;;5000450;28;20225;-79
2021/03/05 05:58:56;;;;;;;6.90;5.40;;;1.60;99.90;;;;;;5011284;28;20213;-79
2021/03/05 06:01:24;;;;;;;7.30;6.60;;;1.90;99.90;;;;;;4978395;28;20236;-79
2021/03/05 06:03:55;;;;;;;6.73;5.90;;;2.10;99.90;;;;;;4978317;28;20271;-80
2021/03/05 06:06:21;;;;;;;6.25;4.82;;;1.90;99.90;;;;;;4994975;28;20933;-79
2021/03/05 06:08:49;;;;;;;7.43;5.60;;;2.40;99.90;;;;;;5011850;28;20251;-79
2021/03/05 06:11:15;;;;;;;5.65;5.13;;;2.10;99.90;;;;;;4987362;28;20471;-80
2021/03/05 06:13:44;;;;;;;5.90;5.30;;;1.70;99.90;;;;;;5011647;28;20294;-79
2021/03/05 06:16:21;;;;;;;6.32;5.10;;;1.80;99.90;;;;;;5001613;28;20869;-79
2021/03/05 06:18:54;;;;;;;6.68;5.97;;;2.30;99.90;;;;;;5012469;28;20282;-79
2021/03/05 06:21:40;;;;;;;4.57;4.18;;;2.20;99.90;;;;;;4978619;28;20209;-79
2021/03/05 06:24:17;;;;;;;5.13;4.63;;;2.00;99.90;;;;;;4995985;28;20239;-79
2021/03/05 06:26:58;;;;;;;5.53;4.90;;;1.80;99.90;;;;;;5012281;28;20606;-79
2021/03/05 06:29:38;;;;;;;5.60;5.10;;;1.80;99.90;;;;;;5011094;28;20233;-80
2021/03/05 06:32:05;;;;;;;9.60;6.05;;;1.70;99.90;;;;;;4997132;28;20223;-79
2021/03/05 06:34:49;;;;;;;6.35;5.25;;;1.80;99.90;;;;;;5011836;28;20249;-80
2021/03/05 06:37:21;;;;;;;5.80;4.93;;;1.40;99.90;;;;;;5008932;28;20202;-79
2021/03/05 06:40:08;;;;;;;5.20;4.70;;;1.80;99.90;;;;;;4983526;28;20645;-79
2021/03/05 06:42:50;;;;;;;5.03;4.60;;;1.70;99.90;;;;;;5001222;28;20632;-80
2021/03/05 06:45:18;;;;;;;5.90;4.60;;;1.30;99.90;;;;;;4998665;28;20190;-80
2021/03/05 06:48:03;;;;;;;5.28;4.75;;;1.60;99.90;;;;;;4997849;28;20185;-83
2021/03/05 06:50:38;;;;;;;5.25;4.47;;;1.30;99.90;;;;;;4981477;28;20235;-83
2021/03/05 06:53:21;;;;;;;5.47;5.00;;;1.70;99.90;;;;;;4935777;28;20208;-81
2021/03/05 06:55:47;;;;;;;6.43;5.32;;;1.60;99.90;;;;;;4942993;28;20199;-84
2021/03/05 06:58:13;;;;;;;7.53;5.18;;;1.40;99.90;;;;;;4947918;28;20211;-82
2021/03/05 07:00:41;;;;;;;7.28;4.68;;;1.70;99.90;;;;;;4934706;28;20669;-83
2021/03/05 07:03:34;;;;;;;6.25;4.38;;;1.70;99.90;;;;;;4948584;28;20550;-83
2021/03/05 07:06:00;;;;;;;5.53;4.93;;;1.50;99.90;;;;;;4945245;28;20225;-85
2021/03/05 07:08:42;;;;;;;5.32;4.60;;;1.80;99.90;;;;;;4964349;28;20182;-81
2021/03/05 07:11:32;;;;;;;4.78;4.32;;;1.30;99.90;;;;;;4937873;28;20207;-81
2021/03/05 07:13:59;;;;;;;8.27;5.13;;;1.60;99.90;;;;;;4931271;28;20605;-82
2021/03/05 07:16:25;;;;;;;4.93;4.53;;;1.70;99.90;;;;;;4961466;28;20227;-82
2021/03/05 07:18:53;;;;;;;6.10;4.40;;;1.50;99.90;;;;;;4947729;28;20204;-82
2021/03/05 07:21:20;;;;;;;9.38;4.93;;;1.20;99.90;;;;;;4947406;28;20195;-81
2021/03/05 07:23:48;;;;;;;7.18;4.80;;;1.90;99.90;;;;;;4959806;28;20229;-82
2021/03/05 07:26:24;;;;;;;6.18;5.15;;;1.30;99.90;;;;;;4963839;28;20245;-82
2021/03/05 07:28:53;;;;;;;6.32;5.05;;;1.70;99.90;;;;;;4936211;28;20696;-84
2021/03/05 07:31:25;;;;;;;6.88;4.30;;;1.90;99.90;;;;;;4977008;28;20206;-83
2021/03/05 07:33:57;;;;;;;5.43;4.70;;;1.80;99.90;;;;;;4944965;28;20668;-79
2021/03/05 07:36:27;;;;;;;6.38;4.75;;;1.70;99.90;;;;;;4943960;28;20235;-82
2021/03/05 07:38:55;;;;;;;4.05;3.65;;;1.60;99.90;;;;;;4962843;28;20191;-83
2021/03/05 07:41:23;;;;;;;8.52;4.65;;;1.70;99.90;;;;;;4938972;28;20709;-83
2021/03/05 07:43:50;;;;;;;4.40;3.97;;;1.80;99.90;;;;;;4946568;28;20188;-83
2021/03/05 07:46:19;;;;;;;7.28;4.30;;;1.70;99.90;;;;;;4946537;28;20275;-84
2021/03/05 07:48:49;;;;;;;6.10;5.07;;;1.90;99.90;;;;;;4946132;28;20539;-84
2021/03/05 07:51:19;;;;;;;5.45;3.72;;;2.00;99.90;;;;;;4948238;28;20239;-82
2021/03/05 07:53:52;;;;;;;8.68;4.40;;;1.80;99.90;;;;;;4982276;28;20611;-83
2021/03/05 07:56:46;;;;;;;5.90;4.30;;;2.00;99.90;;;;;;4965690;28;20533;-82
2021/03/05 07:59:35;;;;;;;7.95;4.60;;;2.30;99.90;;;;;;4997870;28;20233;-83
2021/03/05 08:02:05;;;;;;;6.05;4.20;;;2.40;99.90;;;;;;4962209;28;20230;-82
2021/03/05 08:04:53;;;;;;;5.38;4.88;;;2.30;99.90;;;;;;4967429;28;20191;-83
2021/03/05 08:07:20;;;;;;;5.03;4.63;;;2.30;99.90;;;;;;4974841;28;20232;-84
2021/03/05 08:09:52;;;;;;;9.00;4.75;;;2.30;99.90;;;;;;4963261;28;20209;-83
2021/03/05 08:12:45;;;;;;;7.20;4.88;;;2.20;99.90;;;;;;4976629;28;20213;-83
2021/03/05 08:15:14;;;;;;;8.82;4.45;;;2.60;99.90;;;;;;4958636;28;20198;-84
2021/03/05 08:17:44;;;;;;;6.20;4.90;;;2.70;99.90;;;;;;4996504;28;20192;-84
2021/03/05 08:20:18;;;;;;;6.20;4.25;;;2.70;99.90;;;;;;4956139;28;20815;-82
2021/03/05 08:23:02;;;;;;;4.97;4.45;;;2.90;99.90;;;;;;4982664;28;20244;-83
2021/03/05 08:25:31;;;;;;;4.90;4.50;;;2.90;99.90;;;;;;4960610;28;20267;-84
2021/03/05 08:27:58;;;;;;;6.55;5.03;;;2.60;99.90;;;;;;4965231;28;20267;-82
2021/03/05 08:30:34;;;;;;;8.32;4.90;;;3.00;99.90;;;;;;4961464;28;20619;-81
2021/03/05 08:33:06;;;;;;;5.88;5.10;;;3.00;99.90;;;;;;4993584;28;20255;-82
2021/03/05 08:35:34;;;;;;;5.72;4.40;;;3.30;99.90;;;;;;4980817;28;20185;-80
2021/03/05 08:38:06;;;;;;;7.10;4.40;;;3.30;99.90;;;;;;4989005;28;20199;-83
2021/03/05 08:40:40;;;;;;;5.30;4.90;;;3.40;99.90;;;;;;4959132;28;20666;-81
2021/03/05 08:43:09;;;;;;;4.97;4.43;;;3.60;99.90;;;;;;4958146;28;20194;-83
2021/03/05 08:45:46;;;;;;;6.60;5.57;;;3.90;99.90;;;;;;4965044;28;20641;-83
2021/03/05 08:48:25;;;;;;;6.70;5.53;;;3.80;99.90;;;;;;4972191;28;20753;-83
2021/03/05 08:50:51;;;;;;;6.18;5.68;;;3.80;99.90;;;;;;4980904;28;20233;-82
2021/03/05 08:53:18;;;;;;;6.45;5.57;;;4.10;99.90;;;;;;4980355;28;20210;-81
2021/03/05 08:55:45;;;;;;;7.45;5.45;;;4.00;99.90;;;;;;4965361;28;20526;-83
2021/03/05 08:58:17;;;;;;;7.80;5.28;;;4.10;99.90;;;;;;4957410;28;20182;-83
2021/03/05 09:00:44;;;;;;;5.70;5.13;;;3.90;99.90;;;;;;4962527;28;20219;-83
2021/03/05 09:03:12;;;;;;;5.93;4.90;;;4.00;99.90;;;;;;4956494;28;20611;-83
2021/03/05 09:05:41;;;;;;;5.80;5.18;;;4.20;99.90;;;;;;4969288;28;20241;-81
2021/03/05 09:08:15;;;;;;;6.18;5.57;;;4.30;99.90;;;;;;4985686;28;20268;-84
2021/03/05 09:10:46;;;;;;;5.45;4.97;;;4.30;99.90;;;;;;4962498;28;20635;-85
2021/03/05 09:13:16;;;;;;;6.45;5.82;;;4.40;99.90;;;;;;4964472;28;20219;-85
2021/03/05 09:15:45;;;;;;;5.68;4.75;;;4.50;99.90;;;;;;4956435;28;20272;-84
2021/03/05 09:18:13;;;;;;;10.57;6.35;;;4.50;99.90;;;;;;4964368;28;20209;-84
2021/03/05 09:20:46;;;;;;;6.63;6.00;;;4.60;99.90;;;;;;4960998;28;20191;-85
2021/03/05 09:23:44;;;;;;;5.60;5.10;;;4.70;99.90;;;;;;4961078;28;20194;-84
2021/03/05 09:26:16;;;;;;;7.20;5.68;;;4.90;99.90;;;;;;4977019;28;20198;-84
2021/03/05 09:28:48;;;;;;;9.20;7.00;;;5.10;99.90;;;;;;4979560;28;20225;-84
2021/03/05 09:31:23;;;;;;;7.50;6.80;;;5.10;99.90;;;;;;4957868;28;20296;-83
2021/03/05 09:33:51;;;;;;;6.70;6.30;;;5.40;99.90;;;;;;4964948;28;20226;-85
2021/03/05 09:36:22;;;;;;;6.72;6.22;;;5.40;98.60;;;;;;4979304;28;20267;-82
2021/03/05 09:39:04;;;;;;;12.85;6.70;;;5.40;98.20;;;;;;4960943;28;20204;-82
2021/03/05 09:41:31;;;;;;;7.25;6.75;;;5.40;98.30;;;;;;4986151;28;20618;-82
2021/03/05 09:44:05;;;;;;;6.43;6.03;;;5.40;98.20;;;;;;4953556;28;20650;-82
2021/03/05 09:46:37;;;;;;;7.43;6.72;;;5.40;97.60;;;;;;4964672;28;20212;-83
2021/03/05 09:49:31;;;;;;;10.63;9.82;;;5.40;98.80;;;;;;4964019;28;20196;-82
2021/03/05 09:51:59;;;;;;;6.55;6.05;;;5.50;96.90;;;;;;4974498;28;20291;-82
2021/03/05 09:54:38;;;;;;;6.90;6.40;;;5.70;96.70;;;;;;4963681;28;20248;-80
2021/03/05 09:57:09;;;;;;;6.95;6.40;;;5.70;96.80;;;;;;4967106;28;20177;-82
2021/03/05 09:59:45;;;;;;;8.02;7.43;;;5.70;97.20;;;;;;4978083;28;20221;-82
2021/03/05 10:02:21;;;;;;;5.88;5.53;;;6.00;96.90;;;;;;4993450;28;20661;-82
2021/03/05 10:04:51;;;;;;;6.60;6.10;;;6.10;96.30;;;;;;4968396;28;20228;-82
2021/03/05 10:07:19;;;;;;;7.80;6.05;;;6.30;95.50;;;;;;4956676;28;20285;-82
2021/03/05 10:09:47;;;;;;;5.80;5.30;;;6.50;94.00;;;;;;4960654;28;20532;-84
2021/03/05 10:12:25;;;;;;;5.97;5.47;;;6.40;93.40;;;;;;4952519;28;20612;-87
2021/03/05 10:15:06;;;;;;;6.70;6.40;;;6.30;94.10;;;;;;4976108;28;20186;-82
2021/03/05 10:17:40;;;;;;;10.63;5.80;;;6.30;92.70;;;;;;4958723;28;20681;-82
2021/03/05 10:20:09;;;;;;;5.18;4.72;;;6.40;93.20;;;;;;4967606;28;20594;-82
2021/03/05 10:22:40;;;;;;;5.40;4.90;;;6.40;92.30;;;;;;4979491;28;20224;-83
2021/03/05 10:25:07;;;;;;;6.20;5.80;;;6.60;92.90;;;;;;4979714;28;20198;-81
2021/03/05 10:27:40;;;;;;;6.43;6.05;;;6.90;92.90;;;;;;4968853;28;20222;-80
2021/03/05 10:30:07;;;;;;;6.68;6.28;;;6.90;91.00;;;;;;4964905;28;20606;-81
2021/03/05 10:32:47;;;;;;;5.57;5.28;;;7.20;90.80;;;;;;4963102;28;20312;-81
2021/03/05 10:35:18;;;;;;;5.70;5.40;;;7.30;90.20;;;;;;4955147;28;20210;-81
2021/03/05 10:37:46;;;;;;;5.32;5.03;;;7.40;87.40;;;;;;4978629;28;20216;-81
2021/03/05 10:40:16;;;;;;;6.00;5.55;;;7.10;87.70;;;;;;4959075;28;20698;-81
2021/03/05 10:42:43;;;;;;;5.75;5.25;;;7.20;87.70;;;;;;5007867;28;20189;-79
2021/03/05 10:45:40;;;;;;;5.70;5.30;;;7.20;89.90;;;;;;4994425;28;20228;-84
2021/03/05 10:48:13;;;;;;;6.57;6.10;;;7.60;91.30;;;;;;5007086;28;20424;-84
2021/03/05 10:50:43;;;;;;;5.10;4.80;;;7.50;87.10;;;;;;5010588;28;20221;-83
2021/03/05 10:53:17;;;;;;;5.38;5.18;;;7.30;85.80;;;;;;4984999;28;20214;-81
2021/03/05 10:55:46;;;;;;;5.50;5.30;;;7.50;84.10;;;;;;4983188;28;20665;-82
2021/03/05 10:58:12;;;;;;;5.77;5.47;;;7.60;83.20;;;;;;5012326;28;20913;-82
2021/03/05 11:00:39;;;;;;;5.50;5.20;;;7.40;82.40;;;;;;4959564;28;20452;-82
2021/03/05 11:03:08;;;;;;;6.95;6.53;;;7.10;83.00;;;;;;4965853;28;20466;-83
2021/03/05 11:05:34;;;;;;;6.00;5.60;;;7.20;85.80;;;;;;4969170;28;20265;-82
2021/03/05 11:08:00;;;;;;;6.20;5.80;;;7.20;82.70;;;;;;4964036;28;20440;-81
2021/03/05 11:10:28;;;;;;;8.18;6.00;;;7.10;83.70;;;;;;4980394;28;20436;-84
2021/03/05 11:12:57;;;;;;;6.05;5.72;;;7.20;83.00;;;;;;4963366;28;20214;-84
2021/03/05 11:15:23;;;;;;;6.60;6.20;;;7.20;84.40;;;;;;4963159;28;20194;-83
2021/03/05 11:17:49;;;;;;;4.90;4.70;;;6.90;80.20;;;;;;4974126;28;20195;-82
2021/03/05 11:20:18;;;;;;;6.63;6.22;;;6.90;81.20;;;;;;4961391;28;20646;-83
2021/03/05 11:22:44;;;;;;;6.40;6.00;;;7.00;80.20;;;;;;4963942;28;20604;-82
2021/03/05 11:25:11;;;;;;;5.43;5.13;;;6.90;79.30;;;;;;4964703;28;20187;-82
2021/03/05 11:27:37;;;;;;;5.75;5.43;;;6.80;79.80;;;;;;4963079;28;20226;-82
2021/03/05 11:30:04;;;;;;;6.28;5.97;;;6.90;79.30;;;;;;4966078;28;20195;-82
2021/03/05 11:32:33;;;;;;;5.22;4.93;;;7.00;81.40;;;;;;4964022;28;20221;-84
2021/03/05 11:35:00;;;;;;;5.18;4.80;;;7.10;81.40;;;;;;4972347;28;20265;-82
2021/03/05 11:37:31;;;;;;;6.23;5.83;;;7.10;81.80;;;;;;4983209;28;20205;-82
2021/03/05 11:39:57;;;;;;;5.45;5.03;;;7.00;81.20;;;;;;4981315;28;20992;-81
2021/03/05 11:42:24;;;;;;;5.30;4.90;;;7.10;78.90;;;;;;4965449;28;20191;-83
2021/03/05 11:44:50;;;;;;;4.85;4.55;;;7.00;78.90;;;;;;5014528;28;20240;-84
2021/03/05 11:47:17;;;;;;;5.57;5.18;;;6.90;77.00;;;;;;5013435;28;20193;-84
2021/03/05 11:49:43;;;;;;;7.55;5.20;;;6.80;75.50;;;;;;4995277;28;20190;-84
2021/03/05 11:52:10;;;;;;;5.82;5.35;;;6.60;75.20;;;;;;4984205;28;20618;-81
2021/03/05 11:54:36;;;;;;;6.10;5.80;;;6.30;72.10;;;;;;4976034;28;20257;-82
2021/03/05 11:57:02;;;;;;;6.18;5.70;;;6.40;75.60;;;;;;4960692;28;20202;-81
2021/03/05 11:59:31;;;;;;;5.90;5.60;;;6.50;77.80;;;;;;4996487;28;20194;-81
2021/03/05 12:01:59;;;;;;;6.35;5.95;;;6.40;78.10;;;;;;4966383;28;20186;-81
2021/03/05 12:04:25;;;;;;;6.65;6.35;;;6.40;79.70;;;;;;4964260;28;20196;-80
2021/03/05 12:06:51;;;;;;;6.50;5.90;;;6.40;79.30;;;;;;4996078;28;20185;-83
2021/03/05 12:09:20;;;;;;;6.28;5.80;;;6.40;80.90;;;;;;4996896;28;20525;-82
2021/03/05 12:11:50;;;;;;;4.80;4.60;;;6.50;79.00;;;;;;4991504;28;20190;-84
2021/03/05 12:14:18;;;;;;;6.00;5.65;;;6.60;79.80;;;;;;4995975;28;20557;-82
2021/03/05 12:16:45;;;;;;;5.53;5.22;;;6.70;79.50;;;;;;4971944;28;20224;-81
2021/03/05 12:19:11;;;;;;;6.15;5.85;;;6.70;77.10;;;;;;4973271;28;20763;-83
2021/03/05 12:21:37;;;;;;;6.27;5.97;;;6.80;76.00;;;;;;4990921;28;20269;-83
2021/03/05 12:24:03;;;;;;;5.60;5.20;;;6.90;78.00;;;;;;4971596;28;20473;-81
2021/03/05 12:26:30;;;;;;;5.70;5.30;;;7.00;81.30;;;;;;4963278;28;20196;-82
2021/03/05 12:28:58;;;;;;;6.22;5.82;;;7.00;77.40;;;;;;4981178;28;20193;-83
2021/03/05 12:31:24;;;;;;;5.95;5.57;;;6.90;74.60;;;;;;4980597;28;20207;-81
2021/03/05 12:33:50;;;;;;;5.55;5.25;;;6.90;73.40;;;;;;4974894;28;20214;-81
2021/03/05 12:36:19;;;;;;;5.60;5.10;;;6.80;73.40;;;;;;4985612;28;20182;-82
2021/03/05 12:38:45;;;;;;;5.40;5.00;;;6.70;72.70;;;;;;4958477;28;20193;-81
2021/03/05 12:41:14;;;;;;;5.22;4.93;;;6.60;70.70;;;;;;4965160;28;20220;-83
2021/03/05 12:43:40;;;;;;;6.38;6.07;;;6.70;69.20;;;;;;4994359;28;20269;-83
2021/03/05 12:46:08;;;;;;;6.10;5.60;;;6.70;68.20;;;;;;4976295;28;20280;-83
2021/03/05 12:48:34;;;;;;;6.13;5.53;;;6.80;71.30;;;;;;4956849;28;20214;-83
2021/03/05 12:51:00;;;;;;;5.43;5.13;;;7.00;71.70;;;;;;4959274;28;20341;-83
2021/03/05 12:53:26;;;;;;;5.55;5.15;;;7.00;69.50;;;;;;4961585;28;20490;-83
2021/03/05 12:55:55;;;;;;;5.00;4.80;;;7.00;70.50;;;;;;4996798;28;20201;-83
2021/03/05 12:58:21;;;;;;;6.65;6.15;;;7.10;71.60;;;;;;4988483;28;20289;-83
2021/03/05 13:00:52;;;;;;;5.43;5.10;;;7.10;71.50;;;;;;5013344;28;20217;-83
2021/03/05 13:03:22;;;;;;;6.47;6.13;;;7.30;73.20;;;;;;5009153;28;20212;-84
2021/03/05 13:05:48;;;;;;;5.70;5.40;;;7.30;71.10;;;;;;4987243;28;20200;-85
2021/03/05 13:08:14;;;;;;;5.72;5.50;;;7.40;68.90;;;;;;5011318;28;20193;-84
2021/03/05 13:10:40;;;;;;;7.60;7.23;;;7.20;67.40;;;;;;4993987;28;20256;-84
2021/03/05 13:13:09;;;;;;;6.03;5.72;;;7.40;68.20;;;;;;5000590;28;20468;-84